Ar Rayyan, Qatar
Current Conditions -  °F | °C
As of 7:58 PM on Sunday 23 Nov 2014 (Local Time) from KQIR Reporting Station
Clear Clear  
Wind Chill: 77°   Ceiling: Unl
Heat Index: 78°   Visibility: 6mi
Dew Point: 69°   Wind: 12mph
Humidity: 75%   Direction: 70°ENE
Pressure: 29.91"   Gusts: NA
Location:  25.32°N, 51.37°E
Report Text: KQIR 231658Z 07010KT 9999 CLR 25/20 A2991 RMK AO2A SLP130 T02490203 $
Loading
Personal Weather Stations






























Interactive Weather Map New forecast layout! Learn more

10-Day Weather Forecast

Advertisements
Track Severe Weather on mobile